Vernon, TX

10:01 AM CDT on September 25, 2017 (GMT -0500)
Vernon | | Change Station

Elev 1266 ft 34.23 °N, 99.28 °W | Updated 6 minutes ago

Overcast
Overcast
74 °F
Feels Like 74 °F
N
8
Wind Variable Wind from SE

Today
High -- | Low -- °F
--% Chance of Precip.
Yesterday
High -- | Low -- °F
Precip. -- in
Pressure 29.90 in
Visibility 10.0 miles
Clouds Scattered Clouds 4200 ft
Scattered Clouds 6500 ft
Mostly Cloudy 11000 ft
Dew Point 68 °F
Humidity 81%
Rainfall 0.00 in
Snow Depth Not available.
7:27 AM 7:29 PM
Waxing Crescent, 27% visible
METAR KF05 251455Z AUTO 14007KT 10SM SCT042 SCT065 BKN110 24/20 A2990 RMK AO1 LTG DSNT W THRU N T02360201
Pressure 29.90 in
Visibility 10.0 miles
Clouds Scattered Clouds 4200 ft
Scattered Clouds 6500 ft
Mostly Cloudy 11000 ft
Dew Point 68 °F
Humidity 81%
Rainfall 0.00 in
Snow Depth Not available.
7:27 AM 7:29 PM
Waxing Crescent, 27% visible
METAR KF05 251455Z AUTO 14007KT 10SM SCT042 SCT065 BKN110 24/20 A2990 RMK AO1 LTG DSNT W THRU N T02360201

Get Severe Weather Alerts

Thanks for signing up!

Be on the lookout for a verification email in your inbox.

You'll start receiving the daily forecast at 6 AM.

×

10-Day Weather Forecast

Almanac

Astronomy

Sep. 25, 2017 Rise Set
Actual Time
Civil Twilight
Nautical Twilight
Astronomical Twilight
Moon
Length of Visible Light
Length of Day
Tomorrow will be .
, % of the Moon is Illuminated

Today's Extremes

State Highs State Lows

Community

WunderPhotos

Category 6

Welcome to Category 6. This is the collective home for Weather Underground's featured writeups by Dr. Jeff Masters (right), Bob Henson (left), Chris Burt, and other regular contributors.

Nearby

Air Quality

  Air Quality AQ Index Pollutant
Not available.

Snow Depth

Station Depth Elevation

Earthquake Activity

City Distance Mag. Time & Date
Minimum magnitude displayed is 2.5.

Coastal Water Temperatures

Place Temperature

Stations

Nearby Weather Stations

Station Location Temp. Windchill Dew Point Humidity Wind Precip. Elev Updated Type
                   

Watches & Warnings

There are currently no watches in effect.